sensor_id;sensor_type;location;lat;lon;timestamp;pressure;altitude;pressure_sealevel;temperature;humidity
18987;BME280;9627;59.236;18.142;2022-08-19T00:00:14;101098.63;;;19.16;100.00
18987;BME280;9627;59.236;18.142;2022-08-19T00:02:41;101093.25;;;19.16;100.00
18987;BME280;9627;59.236;18.142;2022-08-19T00:05:10;101092.00;;;19.41;100.00
18987;BME280;9627;59.236;18.142;2022-08-19T00:07:37;101098.78;;;19.32;100.00
18987;BME280;9627;59.236;18.142;2022-08-19T00:10:04;101085.78;;;19.29;100.00
18987;BME280;9627;59.236;18.142;2022-08-19T00:12:31;101094.81;;;19.35;100.00
18987;BME280;9627;59.236;18.142;2022-08-19T00:14:58;101089.50;;;19.17;100.00
18987;BME280;9627;59.236;18.142;2022-08-19T00:17:25;101090.34;;;19.29;100.00
18987;BME280;9627;59.236;18.142;2022-08-19T00:19:52;101088.31;;;19.13;100.00
18987;BME280;9627;59.236;18.142;2022-08-19T00:22:20;101093.44;;;19.14;100.00
18987;BME280;9627;59.236;18.142;2022-08-19T00:24:47;101085.97;;;19.16;100.00
18987;BME280;9627;59.236;18.142;2022-08-19T00:27:14;101087.16;;;19.20;100.00
18987;BME280;9627;59.236;18.142;2022-08-19T00:29:41;101088.66;;;19.16;100.00
18987;BME280;9627;59.236;18.142;2022-08-19T00:32:08;101079.81;;;19.27;100.00
18987;BME280;9627;59.236;18.142;2022-08-19T00:34:35;101078.41;;;19.25;100.00
18987;BME280;9627;59.236;18.142;2022-08-19T00:37:01;101073.06;;;19.36;100.00
18987;BME280;9627;59.236;18.142;2022-08-19T00:39:30;101062.16;;;19.43;100.00
18987;BME280;9627;59.236;18.142;2022-08-19T00:41:56;101059.00;;;19.34;100.00
18987;BME280;9627;59.236;18.142;2022-08-19T00:44:24;101060.88;;;19.69;100.00
18987;BME280;9627;59.236;18.142;2022-08-19T00:46:53;101061.56;;;19.53;100.00
18987;BME280;9627;59.236;18.142;2022-08-19T00:49:20;101062.06;;;19.50;100.00
18987;BME280;9627;59.236;18.142;2022-08-19T00:51:51;101057.75;;;19.49;100.00
18987;BME280;9627;59.236;18.142;2022-08-19T00:54:18;101067.53;;;19.66;100.00
18987;BME280;9627;59.236;18.142;2022-08-19T00:56:47;101065.09;;;19.53;100.00
18987;BME280;9627;59.236;18.142;2022-08-19T00:59:15;101065.56;;;19.62;100.00
18987;BME280;9627;59.236;18.142;2022-08-19T01:01:42;101060.19;;;19.50;100.00
18987;BME280;9627;59.236;18.142;2022-08-19T01:04:10;101062.16;;;19.43;100.00
18987;BME280;9627;59.236;18.142;2022-08-19T01:06:37;101067.78;;;19.41;100.00
18987;BME280;9627;59.236;18.142;2022-08-19T01:09:05;101057.75;;;19.49;100.00
18987;BME280;9627;59.236;18.142;2022-08-19T01:11:33;101066.97;;;19.53;100.00
18987;BME280;9627;59.236;18.142;2022-08-19T01:14:03;101059.59;;;19.60;100.00
18987;BME280;9627;59.236;18.142;2022-08-19T01:16:30;101060.97;;;19.74;100.00
18987;BME280;9627;59.236;18.142;2022-08-19T01:18:58;101051.25;;;19.84;100.00
18987;BME280;9627;59.236;18.142;2022-08-19T01:21:25;101047.75;;;19.72;100.00
18987;BME280;9627;59.236;18.142;2022-08-19T01:23:55;101052.19;;;19.78;100.00
18987;BME280;9627;59.236;18.142;2022-08-19T01:26:22;101047.75;;;19.72;100.00
18987;BME280;9627;59.236;18.142;2022-08-19T01:29:03;101055.00;;;19.72;100.00
18987;BME280;9627;59.236;18.142;2022-08-19T01:31:30;101054.22;;;19.71;100.00
18987;BME280;9627;59.236;18.142;2022-08-19T01:33:56;101057.09;;;19.93;100.00
18987;BME280;9627;59.236;18.142;2022-08-19T01:36:24;101052.09;;;19.85;100.00
18987;BME280;9627;59.236;18.142;2022-08-19T01:38:52;101053.13;;;19.84;100.00
18987;BME280;9627;59.236;18.142;2022-08-19T01:41:21;101054.28;;;19.88;100.00
18987;BME280;9627;59.236;18.142;2022-08-19T01:43:48;101061.69;;;19.81;100.00
18987;BME280;9627;59.236;18.142;2022-08-19T01:46:16;101056.88;;;19.83;100.00
18987;BME280;9627;59.236;18.142;2022-08-19T01:48:42;101051.13;;;19.79;100.00
18987;BME280;9627;59.236;18.142;2022-08-19T01:51:10;101060.13;;;19.96;100.00
18987;BME280;9627;59.236;18.142;2022-08-19T01:53:37;101064.25;;;19.76;100.00
18987;BME280;9627;59.236;18.142;2022-08-19T01:56:05;101065.19;;;19.70;100.00
18987;BME280;9627;59.236;18.142;2022-08-19T01:58:34;101068.97;;;19.69;100.00
18987;BME280;9627;59.236;18.142;2022-08-19T02:01:03;101062.16;;;19.66;100.00
18987;BME280;9627;59.236;18.142;2022-08-19T02:03:30;101052.78;;;19.80;100.00
18987;BME280;9627;59.236;18.142;2022-08-19T02:05:58;101054.91;;;19.78;100.00
18987;BME280;9627;59.236;18.142;2022-08-19T02:08:25;101054.91;;;19.78;100.00
18987;BME280;9627;59.236;18.142;2022-08-19T02:10:52;101057.09;;;19.81;100.00
18987;BME280;9627;59.236;18.142;2022-08-19T02:13:18;101054.78;;;19.73;100.00
18987;BME280;9627;59.236;18.142;2022-08-19T02:15:47;101047.41;;;19.80;100.00
18987;BME280;9627;59.236;18.142;2022-08-19T02:18:13;101053.97;;;19.84;100.00
18987;BME280;9627;59.236;18.142;2022-08-19T02:20:40;101050.72;;;20.10;100.00
18987;BME280;9627;59.236;18.142;2022-08-19T02:23:09;101048.63;;;20.12;100.00
18987;BME280;9627;59.236;18.142;2022-08-19T02:25:36;101053.22;;;19.89;100.00
18987;BME280;9627;59.236;18.142;2022-08-19T02:28:03;101037.31;;;19.87;100.00
18987;BME280;9627;59.236;18.142;2022-08-19T02:30:30;101047.44;;;20.08;100.00
18987;BME280;9627;59.236;18.142;2022-08-19T02:32:58;101048.81;;;19.83;100.00
18987;BME280;9627;59.236;18.142;2022-08-19T02:35:25;101053.13;;;19.84;100.00
18987;BME280;9627;59.236;18.142;2022-08-19T02:37:52;101058.00;;;19.98;100.00
18987;BME280;9627;59.236;18.142;2022-08-19T02:40:36;101054.94;;;20.06;100.00
18987;BME280;9627;59.236;18.142;2022-08-19T02:43:03;101051.66;;;20.16;100.00
18987;BME280;9627;59.236;18.142;2022-08-19T02:45:31;101049.25;;;19.91;100.00
18987;BME280;9627;59.236;18.142;2022-08-19T02:48:00;101057.09;;;19.81;100.00
18987;BME280;9627;59.236;18.142;2022-08-19T02:50:27;101057.00;;;19.76;100.00
18987;BME280;9627;59.236;18.142;2022-08-19T02:52:54;101063.56;;;19.57;100.00
18987;BME280;9627;59.236;18.142;2022-08-19T02:55:21;101064.84;;;19.55;100.00
18987;BME280;9627;59.236;18.142;2022-08-19T02:57:47;101059.47;;;19.55;100.00
18987;BME280;9627;59.236;18.142;2022-08-19T03:00:14;101058.03;;;19.87;100.00
18987;BME280;9627;59.236;18.142;2022-08-19T03:02:41;101058.13;;;20.03;100.00
18987;BME280;9627;59.236;18.142;2022-08-19T03:05:10;101057.47;;;19.85;100.00
18987;BME280;9627;59.236;18.142;2022-08-19T03:07:37;101059.94;;;19.75;100.00
18987;BME280;9627;59.236;18.142;2022-08-19T03:10:04;101067.88;;;19.58;100.00
18987;BME280;9627;59.236;18.142;2022-08-19T03:12:31;101064.41;;;19.58;100.00
18987;BME280;9627;59.236;18.142;2022-08-19T03:15:01;101066.38;;;19.51;100.00
18987;BME280;9627;59.236;18.142;2022-08-19T03:17:28;101067.34;;;19.56;100.00
18987;BME280;9627;59.236;18.142;2022-08-19T03:19:54;101072.13;;;19.54;100.00
18987;BME280;9627;59.236;18.142;2022-08-19T03:22:22;101065.00;;;19.48;100.00
18987;BME280;9627;59.236;18.142;2022-08-19T03:24:50;101069.66;;;19.53;100.00
18987;BME280;9627;59.236;18.142;2022-08-19T03:27:16;101065.78;;;19.60;100.00
18987;BME280;9627;59.236;18.142;2022-08-19T03:29:43;101057.25;;;19.75;100.00
18987;BME280;9627;59.236;18.142;2022-08-19T03:32:10;101064.59;;;19.68;100.00
18987;BME280;9627;59.236;18.142;2022-08-19T03:34:38;101060.41;;;19.72;100.00
18987;BME280;9627;59.236;18.142;2022-08-19T03:37:05;101072.00;;;19.72;100.00
18987;BME280;9627;59.236;18.142;2022-08-19T03:39:35;101068.63;;;19.65;100.00
18987;BME280;9627;59.236;18.142;2022-08-19T03:42:02;101060.69;;;19.98;100.00
18987;BME280;9627;59.236;18.142;2022-08-19T03:44:29;101058.41;;;19.90;100.00
18987;BME280;9627;59.236;18.142;2022-08-19T03:46:58;101056.31;;;19.69;100.00
18987;BME280;9627;59.236;18.142;2022-08-19T03:49:25;101065.91;;;19.65;100.00
18987;BME280;9627;59.236;18.142;2022-08-19T03:51:53;101066.72;;;19.77;100.00
18987;BME280;9627;59.236;18.142;2022-08-19T03:54:21;101064.59;;;19.91;100.00
18987;BME280;9627;59.236;18.142;2022-08-19T03:56:51;101069.41;;;19.77;100.00
18987;BME280;9627;59.236;18.142;2022-08-19T03:59:19;101081.00;;;19.89;100.00
18987;BME280;9627;59.236;18.142;2022-08-19T04:01:47;101074.31;;;20.03;100.00
18987;BME280;9627;59.236;18.142;2022-08-19T04:04:14;101065.75;;;19.83;100.00
18987;BME280;9627;59.236;18.142;2022-08-19T04:06:40;101076.09;;;19.75;100.00
18987;BME280;9627;59.236;18.142;2022-08-19T04:09:07;101070.81;;;19.57;100.00
18987;BME280;9627;59.236;18.142;2022-08-19T04:11:36;101073.41;;;19.86;100.00
18987;BME280;9627;59.236;18.142;2022-08-19T04:14:08;101068.44;;;19.95;100.00
18987;BME280;9627;59.236;18.142;2022-08-19T04:16:35;101076.41;;;20.01;100.00
18987;BME280;9627;59.236;18.142;2022-08-19T04:19:02;101085.19;;;20.08;100.00
18987;BME280;9627;59.236;18.142;2022-08-19T04:21:30;101086.59;;;19.99;100.00
18987;BME280;9627;59.236;18.142;2022-08-19T04:23:57;101094.53;;;20.17;100.00
18987;BME280;9627;59.236;18.142;2022-08-19T04:26:24;101088.50;;;19.87;100.00
18987;BME280;9627;59.236;18.142;2022-08-19T04:28:52;101093.50;;;20.07;100.00
18987;BME280;9627;59.236;18.142;2022-08-19T04:31:21;101102.78;;;20.22;100.00
18987;BME280;9627;59.236;18.142;2022-08-19T04:33:51;101102.59;;;20.41;100.00
18987;BME280;9627;59.236;18.142;2022-08-19T04:36:18;101103.41;;;20.41;100.00
18987;BME280;9627;59.236;18.142;2022-08-19T04:38:45;101107.72;;;20.42;100.00
18987;BME280;9627;59.236;18.142;2022-08-19T04:41:12;101107.41;;;20.15;100.00
18987;BME280;9627;59.236;18.142;2022-08-19T04:43:56;101107.56;;;20.09;100.00
18987;BME280;9627;59.236;18.142;2022-08-19T04:46:25;101101.94;;;20.22;100.00
18987;BME280;9627;59.236;18.142;2022-08-19T04:48:54;101104.38;;;20.23;100.00
18987;BME280;9627;59.236;18.142;2022-08-19T04:51:22;101108.94;;;20.34;100.00
18987;BME280;9627;59.236;18.142;2022-08-19T04:53:48;101109.63;;;20.42;100.00
18987;BME280;9627;59.236;18.142;2022-08-19T04:56:16;101113.28;;;20.36;100.00
18987;BME280;9627;59.236;18.142;2022-08-19T04:58:44;101108.94;;;20.34;100.00
18987;BME280;9627;59.236;18.142;2022-08-19T05:01:12;101100.69;;;20.53;100.00
18987;BME280;9627;59.236;18.142;2022-08-19T05:03:41;101107.56;;;20.20;100.00
18987;BME280;9627;59.236;18.142;2022-08-19T05:06:12;101104.34;;;20.35;100.00
18987;BME280;9627;59.236;18.142;2022-08-19T05:08:39;101097.19;;;20.69;100.00
18987;BME280;9627;59.236;18.142;2022-08-19T05:11:08;101106.56;;;20.78;100.00
18987;BME280;9627;59.236;18.142;2022-08-19T05:13:36;101101.47;;;20.65;100.00
18987;BME280;9627;59.236;18.142;2022-08-19T05:16:03;101093.94;;;20.67;100.00
18987;BME280;9627;59.236;18.142;2022-08-19T05:18:30;101089.78;;;21.20;100.00
18987;BME280;9627;59.236;18.142;2022-08-19T05:21:16;101084.06;;;21.50;100.00
18987;BME280;9627;59.236;18.142;2022-08-19T05:24:00;101084.97;;;21.06;100.00
18987;BME280;9627;59.236;18.142;2022-08-19T05:26:27;101085.13;;;21.49;100.00
18987;BME280;9627;59.236;18.142;2022-08-19T05:28:54;101074.06;;;22.05;100.00
18987;BME280;9627;59.236;18.142;2022-08-19T05:31:21;101079.75;;;22.52;100.00
18987;BME280;9627;59.236;18.142;2022-08-19T05:33:48;101076.75;;;22.49;100.00
18987;BME280;9627;59.236;18.142;2022-08-19T05:36:16;101075.38;;;21.65;100.00
18987;BME280;9627;59.236;18.142;2022-08-19T05:38:44;101077.31;;;23.04;100.00
18987;BME280;9627;59.236;18.142;2022-08-19T05:41:11;101070.41;;;24.63;100.00
18987;BME280;9627;59.236;18.142;2022-08-19T05:43:38;101059.03;;;24.71;100.00
18987;BME280;9627;59.236;18.142;2022-08-19T05:46:05;101063.13;;;24.94;100.00
18987;BME280;9627;59.236;18.142;2022-08-19T05:48:32;101063.97;;;25.25;100.00
18987;BME280;9627;59.236;18.142;2022-08-19T05:51:03;101068.06;;;24.97;100.00
18987;BME280;9627;59.236;18.142;2022-08-19T05:53:31;101064.75;;;25.30;100.00
18987;BME280;9627;59.236;18.142;2022-08-19T05:56:02;101058.34;;;27.41;100.00
18987;BME280;9627;59.236;18.142;2022-08-19T05:58:29;101049.31;;;27.12;100.00
18987;BME280;9627;59.236;18.142;2022-08-19T06:00:57;101051.28;;;26.73;100.00
18987;BME280;9627;59.236;18.142;2022-08-19T06:03:29;101054.53;;;27.95;100.00
18987;BME280;9627;59.236;18.142;2022-08-19T06:05:55;101057.75;;;28.20;100.00
18987;BME280;9627;59.236;18.142;2022-08-19T06:08:24;101050.78;;;29.53;100.00
18987;BME280;9627;59.236;18.142;2022-08-19T06:10:52;101048.28;;;29.97;100.00
18987;BME280;9627;59.236;18.142;2022-08-19T06:13:19;101048.38;;;29.19;100.00
18987;BME280;9627;59.236;18.142;2022-08-19T06:15:46;101050.59;;;28.24;100.00
18987;BME280;9627;59.236;18.142;2022-08-19T06:18:13;101049.66;;;28.53;100.00
18987;BME280;9627;59.236;18.142;2022-08-19T06:20:40;101050.22;;;29.97;100.00
18987;BME280;9627;59.236;18.142;2022-08-19T06:23:07;101051.66;;;28.84;100.00
18987;BME280;9627;59.236;18.142;2022-08-19T06:25:34;101053.03;;;30.05;100.00
18987;BME280;9627;59.236;18.142;2022-08-19T06:28:02;101057.13;;;29.35;100.00
18987;BME280;9627;59.236;18.142;2022-08-19T06:30:29;101057.69;;;27.78;100.00
18987;BME280;9627;59.236;18.142;2022-08-19T06:32:56;101061.41;;;26.57;100.00
18987;BME280;9627;59.236;18.142;2022-08-19T06:35:22;101063.59;;;27.33;100.00
18987;BME280;9627;59.236;18.142;2022-08-19T06:37:50;101053.34;;;29.77;100.00
18987;BME280;9627;59.236;18.142;2022-08-19T06:40:17;101058.00;;;30.17;100.00
18987;BME280;9627;59.236;18.142;2022-08-19T06:42:44;101064.91;;;29.28;100.00
18987;BME280;9627;59.236;18.142;2022-08-19T06:45:12;101061.81;;;29.62;100.00
18987;BME280;9627;59.236;18.142;2022-08-19T06:47:39;101055.84;;;28.95;100.00
18987;BME280;9627;59.236;18.142;2022-08-19T06:50:12;101053.41;;;30.26;100.00
18987;BME280;9627;59.236;18.142;2022-08-19T06:52:39;101049.84;;;31.11;100.00
18987;BME280;9627;59.236;18.142;2022-08-19T06:55:05;101054.66;;;30.34;100.00
18987;BME280;9627;59.236;18.142;2022-08-19T06:57:33;101056.03;;;29.63;100.00
18987;BME280;9627;59.236;18.142;2022-08-19T06:59:59;101051.25;;;28.77;100.00
18987;BME280;9627;59.236;18.142;2022-08-19T07:02:28;101051.19;;;29.60;100.00
18987;BME280;9627;59.236;18.142;2022-08-19T07:04:55;101047.22;;;30.48;100.00
18987;BME280;9627;59.236;18.142;2022-08-19T07:07:22;101056.03;;;29.63;100.00
18987;BME280;9627;59.236;18.142;2022-08-19T07:09:49;101054.75;;;29.88;100.00
18987;BME280;9627;59.236;18.142;2022-08-19T07:12:18;101015.16;;;29.85;100.00
18987;BME280;9627;59.236;18.142;2022-08-19T07:14:44;101049.53;;;30.54;100.00
18987;BME280;9627;59.236;18.142;2022-08-19T07:17:11;101063.09;;;30.10;100.00
18987;BME280;9627;59.236;18.142;2022-08-19T07:19:40;101054.16;;;30.67;100.00
18987;BME280;9627;59.236;18.142;2022-08-19T07:22:07;101065.25;;;29.54;100.00
18987;BME280;9627;59.236;18.142;2022-08-19T07:24:34;101054.38;;;29.03;100.00
18987;BME280;9627;59.236;18.142;2022-08-19T07:27:02;101057.31;;;29.39;100.00
18987;BME280;9627;59.236;18.142;2022-08-19T07:29:30;101053.38;;;30.53;100.00
18987;BME280;9627;59.236;18.142;2022-08-19T07:31:59;101063.19;;;30.05;100.00
18987;BME280;9627;59.236;18.142;2022-08-19T07:34:26;101064.25;;;30.58;100.00
18987;BME280;9627;59.236;18.142;2022-08-19T07:36:55;101064.31;;;31.33;100.00
18987;BME280;9627;59.236;18.142;2022-08-19T07:39:24;101061.19;;;31.40;100.00
18987;BME280;9627;59.236;18.142;2022-08-19T07:41:51;101061.44;;;30.36;100.00
18987;BME280;9627;59.236;18.142;2022-08-19T07:44:18;101059.69;;;30.54;100.00
18987;BME280;9627;59.236;18.142;2022-08-19T07:46:46;101052.56;;;30.53;100.00
18987;BME280;9627;59.236;18.142;2022-08-19T07:49:14;101048.94;;;32.41;100.00
18987;BME280;9627;59.236;18.142;2022-08-19T07:51:44;101052.78;;;32.23;100.00
18987;BME280;9627;59.236;18.142;2022-08-19T07:54:13;101046.56;;;33.00;100.00
18987;BME280;9627;59.236;18.142;2022-08-19T07:56:40;101042.16;;;33.16;100.00
18987;BME280;9627;59.236;18.142;2022-08-19T07:59:07;101043.78;;;32.74;100.00
18987;BME280;9627;59.236;18.142;2022-08-19T08:01:34;101051.00;;;33.30;100.00
18987;BME280;9627;59.236;18.142;2022-08-19T08:04:01;101049.53;;;33.41;100.00
18987;BME280;9627;59.236;18.142;2022-08-19T08:06:45;101046.41;;;32.62;100.00
18987;BME280;9627;59.236;18.142;2022-08-19T08:09:34;101051.28;;;31.61;100.00
18987;BME280;9627;59.236;18.142;2022-08-19T08:12:02;101049.63;;;32.72;100.00
18987;BME280;9627;59.236;18.142;2022-08-19T08:14:31;101046.72;;;32.69;100.00
18987;BME280;9627;59.236;18.142;2022-08-19T08:17:00;101053.78;;;31.79;100.00
18987;BME280;9627;59.236;18.142;2022-08-19T08:19:27;101052.03;;;30.29;100.00
18987;BME280;9627;59.236;18.142;2022-08-19T08:21:54;101047.31;;;32.40;100.00
18987;BME280;9627;59.236;18.142;2022-08-19T08:24:21;101028.28;;;32.69;100.00
18987;BME280;9627;59.236;18.142;2022-08-19T08:26:50;101032.88;;;32.09;100.00
18987;BME280;9627;59.236;18.142;2022-08-19T08:29:17;101040.50;;;31.73;100.00
18987;BME280;9627;59.236;18.142;2022-08-19T08:31:45;101043.31;;;30.62;100.00
18987;BME280;9627;59.236;18.142;2022-08-19T08:34:12;101038.06;;;33.30;100.00
18987;BME280;9627;59.236;18.142;2022-08-19T08:36:41;101035.56;;;32.82;100.00
18987;BME280;9627;59.236;18.142;2022-08-19T08:39:10;101043.03;;;33.92;100.00
18987;BME280;9627;59.236;18.142;2022-08-19T08:41:40;101049.13;;;32.45;100.00
18987;BME280;9627;59.236;18.142;2022-08-19T08:44:16;101047.72;;;31.08;100.00
18987;BME280;9627;59.236;18.142;2022-08-19T08:46:45;101046.97;;;31.38;100.00
18987;BME280;9627;59.236;18.142;2022-08-19T08:49:16;101047.03;;;30.17;100.00
18987;BME280;9627;59.236;18.142;2022-08-19T08:51:47;101041.22;;;32.95;100.00
18987;BME280;9627;59.236;18.142;2022-08-19T08:54:20;101040.34;;;34.12;100.00
18987;BME280;9627;59.236;18.142;2022-08-19T08:56:47;101041.22;;;33.03;100.00
18987;BME280;9627;59.236;18.142;2022-08-19T08:59:19;101038.31;;;32.91;100.00
18987;BME280;9627;59.236;18.142;2022-08-19T09:01:47;101043.72;;;34.38;100.00
18987;BME280;9627;59.236;18.142;2022-08-19T09:04:13;101033.16;;;35.47;100.00
18987;BME280;9627;59.236;18.142;2022-08-19T09:06:44;101035.28;;;36.10;100.00
18987;BME280;9627;59.236;18.142;2022-08-19T09:09:17;101035.59;;;34.21;100.00
18987;BME280;9627;59.236;18.142;2022-08-19T09:11:50;101033.88;;;32.22;100.00
18987;BME280;9627;59.236;18.142;2022-08-19T09:14:28;101032.84;;;31.53;100.00
18987;BME280;9627;59.236;18.142;2022-08-19T09:16:58;101022.59;;;32.40;100.00
18987;BME280;9627;59.236;18.142;2022-08-19T09:19:25;101025.09;;;33.86;100.00
18987;BME280;9627;59.236;18.142;2022-08-19T09:21:52;101013.88;;;34.20;100.00
18987;BME280;9627;59.236;18.142;2022-08-19T09:24:18;101017.19;;;34.75;100.00
18987;BME280;9627;59.236;18.142;2022-08-19T09:26:45;101019.38;;;33.91;100.00
18987;BME280;9627;59.236;18.142;2022-08-19T09:29:12;101023.59;;;33.59;100.00
18987;BME280;9627;59.236;18.142;2022-08-19T09:31:40;101027.00;;;32.75;100.00
18987;BME280;9627;59.236;18.142;2022-08-19T09:34:06;101023.31;;;33.81;100.00
18987;BME280;9627;59.236;18.142;2022-08-19T09:36:33;101020.66;;;33.64;100.00
18987;BME280;9627;59.236;18.142;2022-08-19T09:39:01;101027.56;;;32.21;100.00
18987;BME280;9627;59.236;18.142;2022-08-19T09:41:28;101015.97;;;33.94;100.00
18987;BME280;9627;59.236;18.142;2022-08-19T09:43:55;101022.47;;;32.97;100.00
18987;BME280;9627;59.236;18.142;2022-08-19T09:46:23;101014.19;;;32.88;100.00
18987;BME280;9627;59.236;18.142;2022-08-19T09:48:52;101011.69;;;33.46;100.00
18987;BME280;9627;59.236;18.142;2022-08-19T09:51:20;101009.38;;;32.68;100.00
18987;BME280;9627;59.236;18.142;2022-08-19T09:53:48;101007.28;;;32.56;100.00
18987;BME280;9627;59.236;18.142;2022-08-19T09:56:16;101011.06;;;33.32;100.00
18987;BME280;9627;59.236;18.142;2022-08-19T09:58:44;101000.34;;;33.77;100.00
18987;BME280;9627;59.236;18.142;2022-08-19T10:01:15;101004.53;;;33.83;100.00
18987;BME280;9627;59.236;18.142;2022-08-19T10:03:42;101001.16;;;33.31;100.00
18987;BME280;9627;59.236;18.142;2022-08-19T10:06:10;100999.22;;;33.78;100.00
18987;BME280;9627;59.236;18.142;2022-08-19T10:08:37;100995.34;;;35.03;100.00
18987;BME280;9627;59.236;18.142;2022-08-19T10:11:05;100997.72;;;32.79;100.00
18987;BME280;9627;59.236;18.142;2022-08-19T10:13:32;100995.81;;;31.81;100.00
18987;BME280;9627;59.236;18.142;2022-08-19T10:16:02;100991.78;;;33.32;100.00
18987;BME280;9627;59.236;18.142;2022-08-19T10:18:30;100995.47;;;32.47;100.00
18987;BME280;9627;59.236;18.142;2022-08-19T10:21:02;100997.03;;;32.06;100.00
18987;BME280;9627;59.236;18.142;2022-08-19T10:23:31;100995.50;;;31.13;100.00
18987;BME280;9627;59.236;18.142;2022-08-19T10:25:59;101001.25;;;32.12;100.00
18987;BME280;9627;59.236;18.142;2022-08-19T10:28:26;100997.84;;;32.92;100.00
18987;BME280;9627;59.236;18.142;2022-08-19T10:30:52;100999.63;;;32.19;100.00
18987;BME280;9627;59.236;18.142;2022-08-19T10:33:19;100988.00;;;34.12;100.00
18987;BME280;9627;59.236;18.142;2022-08-19T10:35:46;100984.25;;;34.37;100.00
18987;BME280;9627;59.236;18.142;2022-08-19T10:38:14;100988.31;;;33.61;100.00
18987;BME280;9627;59.236;18.142;2022-08-19T10:40:42;100985.31;;;32.56;100.00
18987;BME280;9627;59.236;18.142;2022-08-19T10:43:08;100986.19;;;33.87;100.00
18987;BME280;9627;59.236;18.142;2022-08-19T10:45:36;100980.00;;;34.81;100.00
18987;BME280;9627;59.236;18.142;2022-08-19T10:48:03;100980.50;;;34.63;100.00
18987;BME280;9627;59.236;18.142;2022-08-19T10:50:30;100977.34;;;32.89;100.00
18987;BME280;9627;59.236;18.142;2022-08-19T10:53:28;100976.34;;;32.00;100.00
18987;BME280;9627;59.236;18.142;2022-08-19T10:55:56;100970.78;;;33.65;100.00
18987;BME280;9627;59.236;18.142;2022-08-19T10:58:42;100976.94;;;33.62;100.00
18987;BME280;9627;59.236;18.142;2022-08-19T11:01:09;100980.91;;;33.82;100.00
18987;BME280;9627;59.236;18.142;2022-08-19T11:03:36;100976.25;;;34.03;100.00
18987;BME280;9627;59.236;18.142;2022-08-19T11:06:03;100981.84;;;33.86;100.00
18987;BME280;9627;59.236;18.142;2022-08-19T11:08:30;100991.88;;;33.53;100.00
18987;BME280;9627;59.236;18.142;2022-08-19T11:11:00;100981.50;;;33.12;100.00
18987;BME280;9627;59.236;18.142;2022-08-19T11:13:28;100979.59;;;32.78;100.00
18987;BME280;9627;59.236;18.142;2022-08-19T11:16:00;100974.06;;;34.71;100.00
18987;BME280;9627;59.236;18.142;2022-08-19T11:18:27;100971.63;;;34.16;100.00
18987;BME280;9627;59.236;18.142;2022-08-19T11:20:54;100978.28;;;33.02;100.00
18987;BME280;9627;59.236;18.142;2022-08-19T11:23:20;100982.09;;;34.64;100.00
18987;BME280;9627;59.236;18.142;2022-08-19T11:25:47;100968.16;;;35.25;100.00
18987;BME280;9627;59.236;18.142;2022-08-19T11:28:15;100974.97;;;34.42;100.00
18987;BME280;9627;59.236;18.142;2022-08-19T11:30:42;100975.75;;;34.51;100.00
18987;BME280;9627;59.236;18.142;2022-08-19T11:33:08;100967.19;;;34.65;100.00
18987;BME280;9627;59.236;18.142;2022-08-19T11:35:38;100968.19;;;33.69;100.00
18987;BME280;9627;59.236;18.142;2022-08-19T11:38:05;100972.03;;;33.77;100.00
18987;BME280;9627;59.236;18.142;2022-08-19T11:40:31;100966.47;;;35.57;100.00
18987;BME280;9627;59.236;18.142;2022-08-19T11:42:59;100968.38;;;34.34;100.00
18987;BME280;9627;59.236;18.142;2022-08-19T11:45:27;100961.81;;;33.48;100.00
18987;BME280;9627;59.236;18.142;2022-08-19T11:47:55;100965.84;;;35.39;100.00
18987;BME280;9627;59.236;18.142;2022-08-19T11:50:22;100972.44;;;34.16;100.00
18987;BME280;9627;59.236;18.142;2022-08-19T11:52:49;100973.44;;;33.53;100.00
18987;BME280;9627;59.236;18.142;2022-08-19T11:55:16;100965.84;;;34.83;100.00
18987;BME280;9627;59.236;18.142;2022-08-19T11:57:44;100963.03;;;34.71;100.00
18987;BME280;9627;59.236;18.142;2022-08-19T12:00:12;100968.03;;;35.10;100.00
18987;BME280;9627;59.236;18.142;2022-08-19T12:02:40;100963.16;;;34.41;100.00
18987;BME280;9627;59.236;18.142;2022-08-19T12:05:07;100973.63;;;32.76;100.00
18987;BME280;9627;59.236;18.142;2022-08-19T12:07:34;100972.81;;;33.77;100.00
18987;BME280;9627;59.236;18.142;2022-08-19T12:10:00;100972.31;;;32.74;100.00
18987;BME280;9627;59.236;18.142;2022-08-19T12:12:27;100961.06;;;34.38;100.00
18987;BME280;9627;59.236;18.142;2022-08-19T12:14:54;100959.19;;;33.43;100.00
18987;BME280;9627;59.236;18.142;2022-08-19T12:17:23;100967.91;;;33.16;100.00
18987;BME280;9627;59.236;18.142;2022-08-19T12:19:52;100968.00;;;32.56;100.00
18987;BME280;9627;59.236;18.142;2022-08-19T12:22:19;100959.13;;;33.22;100.00
18987;BME280;9627;59.236;18.142;2022-08-19T12:24:46;100966.81;;;31.97;100.00
18987;BME280;9627;59.236;18.142;2022-08-19T12:27:15;100967.50;;;31.63;100.00
18987;BME280;9627;59.236;18.142;2022-08-19T12:29:42;100959.44;;;32.57;100.00
18987;BME280;9627;59.236;18.142;2022-08-19T12:32:09;100967.88;;;33.62;100.00
18987;BME280;9627;59.236;18.142;2022-08-19T12:34:36;100971.16;;;31.98;100.00
18987;BME280;9627;59.236;18.142;2022-08-19T12:37:04;100968.94;;;32.77;100.00
18987;BME280;9627;59.236;18.142;2022-08-19T12:39:33;100965.69;;;32.83;100.00
18987;BME280;9627;59.236;18.142;2022-08-19T12:42:00;100967.00;;;33.79;100.00
18987;BME280;9627;59.236;18.142;2022-08-19T12:44:27;100966.00;;;32.99;100.00